| time (UTC) | temp F | wind direction | speed MPH | gust MPH | rain 1hr in | rain 24hr in | rain mn in | humidity % | barometer mb |
| 20260510015016 | 62 | 105 | 3.0 | 7.0 | 0.00 | 0.00 | 0.00 | 53 | 1009.0 |
| 20260510014016 | 65 | 306 | 1.0 | 3.0 | 0.00 | 0.00 | 0.00 | 50 | 1008.4 |
| 20260510013017 | 66 | 314 | 1.0 | 2.0 | 0.00 | 0.00 | 0.00 | 50 | 1008.2 |
| 20260510012037 | 66 | 317 | 1.0 | 4.0 | 0.00 | 0.00 | 0.00 | 50 | 1007.9 |
| 20260510011017 | 67 | 301 | 4.0 | 9.0 | 0.00 | 0.00 | 0.00 | 50 | 1007.6 |
| 20260510010017 | 67 | 303 | 3.0 | 5.0 | 0.00 | 0.00 | 0.00 | 50 | 1007.4 |
| 20260510005017 | 67 | 300 | 4.0 | 8.0 | 0.00 | 0.00 | 0.00 | 49 | 1007.2 |
| 20260510004018 | 68 | 296 | 4.0 | 7.0 | 0.00 | 0.00 | 0.00 | 48 | 1007.0 |
| 20260510003018 | 69 | 296 | 4.0 | 8.0 | 0.00 | 0.00 | 0.00 | 47 | 1006.9 |
| 20260510002018 | 69 | 296 | 5.0 | 10.0 | 0.00 | 0.00 | 0.00 | 46 | 1006.7 |
| 20260510001018 | 69 | 291 | 5.0 | 10.0 | 0.00 | 0.00 | 0.00 | 46 | 1006.6 |
| 20260510000019 | 70 | 293 | 4.0 | 8.0 | 0.00 | 0.00 | 0.00 | 46 | 1006.5 |
| 20260509235015 | 70 | 299 | 5.0 | 10.0 | 0.00 | 0.00 | 0.00 | 45 | 1006.4 |
| 20260509234036 | 71 | 296 | 6.0 | 17.0 | 0.00 | 0.00 | 0.00 | 44 | 1006.3 |
| 20260509233016 | 71 | 298 | 6.0 | 12.0 | 0.00 | 0.00 | 0.00 | 44 | 1006.3 |
| 20260509232016 | 71 | 296 | 7.0 | 10.0 | 0.00 | 0.00 | 0.00 | 43 | 1006.2 |
| 20260509231016 | 71 | 301 | 6.0 | 16.0 | 0.00 | 0.00 | 0.00 | 42 | 1006.0 |
| 20260509230017 | 71 | 299 | 5.0 | 12.0 | 0.00 | 0.00 | 0.00 | 42 | 1006.0 |
| 20260509225037 | 72 | 294 | 7.0 | 12.0 | 0.00 | 0.00 | 0.00 | 41 | 1005.9 |
| 20260509224037 | 72 | 294 | 5.0 | 13.0 | 0.00 | 0.00 | 0.00 | 41 | 1005.7 |
| 20260509223017 | 71 | 294 | 7.0 | 17.0 | 0.00 | 0.00 | 0.00 | 41 | 1005.7 |
| 20260509222037 | 71 | 294 | 7.0 | 13.0 | 0.00 | 0.00 | 0.00 | 40 | 1005.5 |
| 20260509221057 | 72 | 296 | 8.0 | 12.0 | 0.00 | 0.00 | 0.00 | 40 | 1005.5 |
| 20260509220017 | 72 | 299 | 7.0 | 13.0 | 0.00 | 0.00 | 0.00 | 40 | 1005.3 |
| 20260509215017 | 72 | 297 | 5.0 | 11.0 | 0.00 | 0.00 | 0.00 | 40 | 1005.2 |
| 20260509214017 | 72 | 297 | 6.0 | 10.0 | 0.00 | 0.00 | 0.00 | 40 | 1005.2 |
| 20260509213018 | 72 | 297 | 8.0 | 17.0 | 0.00 | 0.00 | 0.00 | 39 | 1005.0 |
| 20260509212038 | 72 | 295 | 7.0 | 14.0 | 0.00 | 0.00 | 0.00 | 38 | 1004.9 |
| 20260509211016 | 72 | 297 | 6.0 | 13.0 | 0.00 | 0.00 | 0.00 | 36 | 1004.8 |
| 20260509210015 | 73 | 295 | 6.0 | 11.0 | 0.00 | 0.00 | 0.00 | 36 | 1004.8 |
| 20260509205016 | 73 | 296 | 7.0 | 12.0 | 0.00 | 0.00 | 0.00 | 37 | 1004.8 |
| 20260509204016 | 73 | 288 | 5.0 | 10.0 | 0.00 | 0.00 | 0.00 | 38 | 1004.8 |
| 20260509203016 | 72 | 290 | 6.0 | 12.0 | 0.00 | 0.00 | 0.00 | 38 | 1004.8 |
| 20260509202036 | 73 | 293 | 7.0 | 13.0 | 0.00 | 0.00 | 0.00 | 36 | 1004.8 |
| 20260509201016 | 73 | 291 | 6.0 | 12.0 | 0.00 | 0.00 | 0.00 | 35 | 1004.7 |
| 20260509200017 | 74 | 289 | 6.0 | 11.0 | 0.00 | 0.00 | 0.00 | 35 | 1004.6 |
| 20260509195016 | 75 | 294 | 8.0 | 14.0 | 0.00 | 0.00 | 0.00 | 34 | 1004.7 |
| 20260509194017 | 76 | 295 | 5.0 | 10.0 | 0.00 | 0.00 | 0.00 | 34 | 1004.7 |
| 20260509193017 | 75 | 297 | 6.0 | 12.0 | 0.00 | 0.00 | 0.00 | 34 | 1004.7 |
| 20260509192018 | 76 | 298 | 6.0 | 13.0 | 0.00 | 0.00 | 0.00 | 34 | 1004.7 |
| 20260509191017 | 76 | 293 | 6.0 | 12.0 | 0.00 | 0.00 | 0.00 | 35 | 1004.6 |
| 20260509190018 | 76 | 295 | 8.0 | 16.0 | 0.00 | 0.00 | 0.00 | 37 | 1004.6 |
| 20260509185018 | 76 | 296 | 5.0 | 9.0 | 0.00 | 0.00 | 0.00 | 41 | 1004.7 |
| 20260509184018 | 76 | 294 | 5.0 | 11.0 | 0.00 | 0.00 | 0.00 | 42 | 1004.7 |
| 20260509183018 | 75 | 290 | 4.0 | 10.0 | 0.00 | 0.00 | 0.00 | 42 | 1004.8 |
| 20260509182018 | 74 | 296 | 4.0 | 8.0 | 0.00 | 0.00 | 0.00 | 44 | 1004.7 |
| 20260509181035 | 75 | 295 | 7.0 | 17.0 | 0.00 | 0.00 | 0.00 | 43 | 1004.7 |
| 20260509180015 | 74 | 289 | 4.0 | 9.0 | 0.00 | 0.00 | 0.00 | 43 | 1004.7 |
| 20260509175036 | 73 | 296 | 5.0 | 11.0 | 0.00 | 0.00 | 0.00 | 46 | 1005.0 |
| 20260509174036 | 73 | 294 | 4.0 | 8.0 | 0.00 | 0.00 | 0.00 | 49 | 1005.0 |
| 20260509173016 | 72 | 289 | 4.0 | 7.0 | 0.00 | 0.00 | 0.00 | 49 | 1005.0 |
| 20260509172019 | 71 | 297 | 4.0 | 8.0 | 0.00 | 0.00 | 0.00 | 51 | 1005.0 |
| 20260509171017 | 71 | 300 | 4.0 | 8.0 | 0.00 | 0.00 | 0.00 | 53 | 1005.0 |
| 20260509170017 | 71 | 298 | 3.0 | 7.0 | 0.00 | 0.00 | 0.00 | 50 | 1004.9 |
| 20260509165037 | 70 | 292 | 3.0 | 6.0 | 0.00 | 0.00 | 0.00 | 57 | 1005.0 |
| 20260509164020 | 69 | 274 | 3.0 | 7.0 | 0.00 | 0.00 | 0.00 | 59 | 1005.1 |
| 20260509163017 | 69 | 294 | 3.0 | 6.0 | 0.00 | 0.00 | 0.00 | 60 | 1005.1 |
| 20260509162018 | 69 | 275 | 2.0 | 7.0 | 0.00 | 0.00 | 0.00 | 63 | 1005.1 |
| 20260509161017 | 68 | 279 | 2.0 | 8.0 | 0.00 | 0.00 | 0.00 | 65 | 1005.1 |
| 20260509160017 | 67 | 288 | 3.0 | 8.0 | 0.00 | 0.00 | 0.00 | 65 | 1005.2 |
| 20260509155018 | 66 | 293 | 3.0 | 6.0 | 0.00 | 0.00 | 0.00 | 67 | 1005.4 |
| 20260509154038 | 65 | 299 | 2.0 | 7.0 | 0.00 | 0.00 | 0.00 | 70 | 1005.4 |
| 20260509153035 | 64 | 296 | 3.0 | 6.0 | 0.00 | 0.00 | 0.00 | 71 | 1005.5 |
| 20260509152015 | 64 | 295 | 3.0 | 7.0 | 0.00 | 0.00 | 0.00 | 74 | 1005.6 |
| 20260509151018 | 63 | 296 | 4.0 | 9.0 | 0.00 | 0.00 | 0.00 | 75 | 1005.5 |
| 20260509150021 | 62 | 294 | 3.0 | 7.0 | 0.00 | 0.00 | 0.00 | 76 | 1005.3 |
| 20260509145016 | 62 | 298 | 4.0 | 9.0 | 0.00 | 0.00 | 0.00 | 77 | 1005.4 |
| 20260509144016 | 61 | 299 | 4.0 | 8.0 | 0.00 | 0.00 | 0.00 | 77 | 1005.4 |
| 20260509143016 | 61 | 302 | 4.0 | 8.0 | 0.00 | 0.00 | 0.00 | 79 | 1005.3 |
| 20260509142016 | 60 | 304 | 4.0 | 8.0 | 0.00 | 0.00 | 0.00 | 81 | 1005.4 |
| 20260509141017 | 60 | 299 | 2.0 | 6.0 | 0.00 | 0.00 | 0.00 | 82 | 1005.3 |
| 20260509140017 | 59 | 293 | 2.0 | 7.0 | 0.00 | 0.00 | 0.00 | 83 | 1005.2 |
| 20260509135017 | 58 | 290 | 2.0 | 6.0 | 0.00 | 0.00 | 0.00 | 84 | 1005.2 |
| 20260509134017 | 57 | 296 | 2.0 | 6.0 | 0.00 | 0.00 | 0.00 | 86 | 1005.3 |
| 20260509133037 | 56 | 286 | 1.0 | 5.0 | 0.00 | 0.00 | 0.00 | 88 | 1005.4 |
| 20260509132058 | 55 | 290 | 2.0 | 5.0 | 0.00 | 0.00 | 0.00 | 91 | 1005.4 |
| 20260509131018 | 54 | 291 | 1.0 | 5.0 | 0.00 | 0.00 | 0.00 | 92 | 1005.5 |
| 20260509130017 | 54 | 277 | 1.0 | 4.0 | 0.00 | 0.00 | 0.00 | 94 | 1005.4 |
| 20260509125017 | 53 | 281 | 1.0 | 4.0 | 0.00 | 0.00 | 0.00 | 95 | 1005.3 |
| 20260509124018 | 52 | 291 | 1.0 | 4.0 | 0.00 | 0.00 | 0.00 | 98 | 1005.5 |
| 20260509123027 | 51 | 275 | 1.0 | 2.0 | 0.00 | 0.00 | 0.00 | 99 | 1005.5 |
| 20260509122027 | 50 | 221 | 1.0 | 3.0 | 0.00 | 0.00 | 0.00 | 100 | 1005.5 |
| 20260509121049 | 50 | 291 | 1.0 | 2.0 | 0.00 | 0.00 | 0.00 | 99 | 1005.4 |
| 20260509120018 | 50 | 291 | 1.0 | 7.0 | 0.00 | 0.00 | 0.00 | 99 | 1005.4 |
| 20260509115028 | 49 | 290 | 1.0 | 3.0 | 0.00 | 0.00 | 0.00 | 99 | 1004.9 |
| 20260509114108 | 49 | 206 | 0.0 | 1.0 | 0.00 | 0.00 | 0.00 | 99 | 1004.6 |
| 20260509113028 | 49 | 329 | 0.0 | 2.0 | 0.00 | 0.00 | 0.00 | 99 | 1004.4 |
| 20260509112028 | 49 | 285 | 1.0 | 4.0 | 0.00 | 0.00 | 0.00 | 99 | 1004.5 |
| 20260509111029 | 49 | 188 | 0.0 | 2.0 | 0.00 | 0.00 | 0.00 | 99 | 1004.6 |
| 20260509110049 | 49 | 169 | 0.0 | 1.0 | 0.00 | 0.01 | 0.00 | 99 | 1004.6 |
| 20260509105028 | 49 | 178 | 0.0 | 3.0 | 0.00 | 0.01 | 0.00 | 99 | 1004.7 |
| 20260509104029 | 49 | 272 | 1.0 | 2.0 | 0.00 | 0.01 | 0.00 | 99 | 1004.9 |
| 20260509103029 | 49 | 15 | 0.0 | 2.0 | 0.00 | 0.01 | 0.00 | 99 | 1004.8 |
| 20260509102029 | 49 | 300 | 0.0 | 2.0 | 0.00 | 0.01 | 0.00 | 99 | 1004.9 |
| 20260509101029 | 49 | 303 | 0.0 | 2.0 | 0.00 | 0.01 | 0.00 | 99 | 1005.1 |
| 20260509100030 | 49 | 188 | 0.0 | 1.0 | 0.00 | 0.01 | 0.00 | 100 | 1005.1 |
| 20260509095030 | 49 | 88 | 0.0 | 2.0 | 0.00 | 0.01 | 0.00 | 100 | 1005.1 |
| 20260509094030 | 48 | 54 | 0.0 | 3.0 | 0.00 | 0.01 | 0.00 | 100 | 1005.2 |
| 20260509093030 | 48 | 331 | 0.0 | 1.0 | 0.00 | 0.01 | 0.00 | 99 | 1005.3 |
| 20260509092016 | 48 | 0.0 | 0.0 | 0.00 | 0.01 | 0.00 | 99 | 1005.3 | |
| 20260509091015 | 48 | 0.0 | 0.0 | 0.00 | 0.01 | 0.00 | 99 | 1005.3 | |
| 20260509090016 | 49 | 0.0 | 0.0 | 0.00 | 0.01 | 0.00 | 99 | 1005.3 | |
| 20260509085016 | 49 | 0.0 | 0.0 | 0.00 | 0.01 | 0.00 | 98 | 1005.4 | |
| 20260509084016 | 49 | 107 | 0.0 | 1.0 | 0.00 | 0.01 | 0.00 | 98 | 1005.3 |
| 20260509083016 | 50 | 0.0 | 0.0 | 0.00 | 0.01 | 0.00 | 98 | 1005.3 | |
| 20260509082016 | 50 | 347 | 0.0 | 1.0 | 0.00 | 0.01 | 0.00 | 98 | 1005.2 |
| 20260509081036 | 50 | 0.0 | 0.0 | 0.00 | 0.01 | 0.00 | 98 | 1005.3 | |
| 20260509080017 | 50 | 0.0 | 0.0 | 0.00 | 0.01 | 0.00 | 98 | 1005.4 | |
| 20260509075016 | 50 | 0.0 | 0.0 | 0.00 | 0.01 | 0.00 | 97 | 1005.4 | |
| 20260509074016 | 51 | 284 | 0.0 | 2.0 | 0.00 | 0.01 | 0.00 | 97 | 1005.4 |
| 20260509073016 | 51 | 311 | 0.0 | 1.0 | 0.00 | 0.01 | 0.00 | 96 | 1005.6 |
| 20260509072016 | 51 | 305 | 0.0 | 1.0 | 0.00 | 0.01 | 0.00 | 96 | 1005.7 |
| 20260509071017 | 51 | 304 | 0.0 | 1.0 | 0.00 | 0.01 | 0.00 | 95 | 1005.7 |
| 20260509070017 | 51 | 328 | 0.0 | 1.0 | 0.00 | 0.01 | 0.00 | 95 | 1005.8 |
| 20260509065017 | 52 | 314 | 1.0 | 2.0 | 0.00 | 0.01 | 0.00 | 94 | 1006.0 |
| 20260509064017 | 52 | 0.0 | 0.0 | 0.00 | 0.01 | 0.00 | 93 | 1006.0 | |
| 20260509063017 | 52 | 320 | 0.0 | 3.0 | 0.00 | 0.01 | 0.00 | 93 | 1006.0 |
| 20260509062017 | 52 | 0.0 | 0.0 | 0.00 | 0.01 | 0.00 | 93 | 1006.1 | |
| 20260509061018 | 52 | 0.0 | 0.0 | 0.00 | 0.01 | 0.00 | 92 | 1006.3 | |
| 20260509060018 | 53 | 310 | 1.0 | 3.0 | 0.00 | 0.01 | 0.00 | 91 | 1006.5 |
| 20260509055018 | 53 | 263 | 0.0 | 2.0 | 0.00 | 0.01 | 0.00 | 90 | 1006.5 |
| 20260509054018 | 53 | 311 | 1.0 | 2.0 | 0.00 | 0.01 | 0.00 | 90 | 1006.5 |
| 20260509053019 | 53 | 298 | 1.0 | 2.0 | 0.00 | 0.01 | 0.00 | 90 | 1006.4 |
| 20260509052018 | 54 | 312 | 0.0 | 1.0 | 0.00 | 0.01 | 0.00 | 89 | 1006.5 |
| 20260509051019 | 54 | 317 | 0.0 | 2.0 | 0.00 | 0.01 | 0.00 | 89 | 1006.5 |
| 20260509050059 | 54 | 249 | 0.0 | 2.0 | 0.00 | 0.01 | 0.00 | 89 | 1006.5 |
| 20260509045019 | 54 | 0.0 | 0.0 | 0.00 | 0.01 | 0.01 | 89 | 1006.6 | |
| 20260509044019 | 54 | 323 | 0.0 | 1.0 | 0.00 | 0.01 | 0.01 | 89 | 1006.7 |
| 20260509043019 | 54 | 275 | 0.0 | 2.0 | 0.00 | 0.01 | 0.01 | 89 | 1006.6 |
| 20260509042020 | 55 | 109 | 0.0 | 3.0 | 0.00 | 0.01 | 0.01 | 88 | 1006.6 |
| 20260509041040 | 55 | 279 | 0.0 | 2.0 | 0.00 | 0.01 | 0.01 | 87 | 1006.8 |
| 20260509040040 | 55 | 250 | 0.0 | 3.0 | 0.00 | 0.01 | 0.01 | 86 | 1006.9 |
| 20260509035022 | 55 | 256 | 0.0 | 2.0 | 0.00 | 0.01 | 0.01 | 85 | 1006.9 |
| 20260509034019 | 56 | 150 | 0.0 | 3.0 | 0.00 | 0.01 | 0.01 | 84 | 1007.0 |
| 20260509033036 | 56 | 303 | 0.0 | 2.0 | 0.00 | 0.01 | 0.01 | 83 | 1006.9 |
| 20260509032017 | 56 | 307 | 0.0 | 2.0 | 0.00 | 0.01 | 0.01 | 82 | 1006.9 |
| 20260509031016 | 57 | 269 | 1.0 | 3.0 | 0.00 | 0.01 | 0.01 | 80 | 1006.9 |
| 20260509030017 | 57 | 266 | 0.0 | 1.0 | 0.00 | 0.01 | 0.01 | 78 | 1006.9 |
| 20260509025017 | 58 | 299 | 0.0 | 3.0 | 0.00 | 0.01 | 0.01 | 77 | 1006.9 |
| 20260509024017 | 58 | 279 | 0.0 | 3.0 | 0.00 | 0.01 | 0.01 | 75 | 1007.0 |
| 20260509023038 | 58 | 294 | 1.0 | 2.0 | 0.00 | 0.01 | 0.01 | 74 | 1007.0 |
| 20260509022017 | 59 | 264 | 1.0 | 3.0 | 0.00 | 0.01 | 0.01 | 74 | 1007.0 |
| 20260509021017 | 59 | 299 | 1.0 | 3.0 | 0.00 | 0.01 | 0.01 | 74 | 1006.9 |
| 20260509020018 | 59 | 291 | 1.0 | 4.0 | 0.00 | 0.01 | 0.01 | 73 | 1006.8 |